Heathcote, New York
Current Conditions -  °F | °C
As of 2:56 AM on Friday 19 Dec 2014 (Local Time) from KHPN Reporting Station
Broken Clouds Broken Clouds  
Wind Chill: 26°   Ceiling: 5000
Heat Index: 35°   Visibility: 10mi
Dew Point: 25°   Wind: 14mph
Humidity: 67%   Direction: 310°NW
Pressure: 29.93"   Gusts: 22mph
Location:  40.989°N, 73.793°W
Report Text: KHPN 190756Z 31012G19KT 10SM BKN050 02/M04 A2993 RMK AO2 SLP142 T00171039
Loading
Personal Weather Stations






























Interactive Weather Map New forecast layout! Learn more

10-Day Weather Forecast

Advertisements
Track Severe Weather on mobile